Time;durP1;ratioP1;P1;durP2;ratioP2;P2;SDS_P1;SDS_P2;PMS_P1;PMS_P2;Temp;Humidity;BMP_temperature;BMP_pressure;BME280_temperature;BME280_humidity;BME280_pressure;Samples;Min_cycle;Max_cycle;Signal;HPM_P1;HPM_P2
2022/06/16 00:00:05;;;;;;;;;;;;;;;17.00;72.75;101363.03;5007121;28;19917;-83
2022/06/16 00:02:30;;;;;;;;;;;;;;;17.02;72.34;101369.97;5008298;28;19914;-84
2022/06/16 00:04:58;;;;;;;;;;;;;;;16.97;72.79;101368.81;5012680;28;19936;-84
2022/06/16 00:07:29;;;;;;;;;;;;;;;16.99;72.52;101372.19;5013621;28;20069;-84
2022/06/16 00:09:56;;;;;;;;;;;;;;;16.95;72.92;101374.47;5015643;28;19917;-84
2022/06/16 00:12:22;;;;;;;;;;;;;;;16.96;72.59;101367.97;5014121;28;19925;-84
2022/06/16 00:14:49;;;;;;;;;;;;;;;16.92;72.69;101363.94;5012628;28;20004;-84
2022/06/16 00:17:15;;;;;;;;;;;;;;;16.96;72.47;101372.56;5011392;28;19921;-84
2022/06/16 00:19:47;;;;;;;;;;;;;;;16.95;72.56;101363.59;5011510;28;20056;-83
2022/06/16 00:22:13;;;;;;;;;;;;;;;16.94;72.84;101361.03;4991237;28;20020;-85
2022/06/16 00:24:41;;;;;;;;;;;;;;;16.80;73.80;101360.00;5010387;28;19948;-84
2022/06/16 00:27:07;;;;;;;;;;;;;;;16.76;73.68;101359.47;5028190;28;19921;-86
2022/06/16 00:29:36;;;;;;;;;;;;;;;16.75;74.07;101355.09;5014449;28;20357;-84
2022/06/16 00:32:03;;;;;;;;;;;;;;;16.72;74.37;101358.19;5016004;28;19921;-85
2022/06/16 00:34:29;;;;;;;;;;;;;;;16.75;74.12;101354.25;5039073;28;19917;-84
2022/06/16 00:36:58;;;;;;;;;;;;;;;16.78;73.65;101348.44;5011992;28;19918;-84
2022/06/16 00:39:33;;;;;;;;;;;;;;;16.76;73.98;101348.63;5016400;28;19963;-84
2022/06/16 00:42:29;;;;;;;;;;;;;;;16.63;74.62;101346.53;5004185;28;19925;-85
2022/06/16 00:44:57;;;;;;;;;;;;;;;16.70;74.29;101338.50;5018928;28;20705;-85
2022/06/16 00:47:24;;;;;;;;;;;;;;;16.75;74.04;101346.09;5018066;28;19971;-85
2022/06/16 00:49:54;;;;;;;;;;;;;;;16.70;74.52;101341.22;5025393;28;19940;-85
2022/06/16 00:52:22;;;;;;;;;;;;;;;16.66;74.38;101340.75;5020454;28;19925;-84
2022/06/16 00:55:09;;;;;;;;;;;;;;;16.60;74.73;101341.50;5011509;28;19936;-85
2022/06/16 00:58:05;;;;;;;;;;;;;;;16.63;74.21;101338.41;5011032;28;19918;-84
2022/06/16 01:00:35;;;;;;;;;;;;;;;16.54;75.13;101336.78;5005782;28;19917;-84
2022/06/16 01:03:03;;;;;;;;;;;;;;;16.47;75.06;101335.84;5012657;28;20012;-84
2022/06/16 01:05:29;;;;;;;;;;;;;;;16.50;75.07;101332.75;5009979;28;20003;-84
2022/06/16 01:07:55;;;;;;;;;;;;;;;16.56;74.41;101332.03;5026596;28;19921;-86
2022/06/16 01:10:20;;;;;;;;;;;;;;;16.57;73.80;101335.56;4991663;28;19914;-83
2022/06/16 01:16:04;;;;;;;;;;;;;;;16.51;74.45;101334.47;5003803;28;19924;-84
2022/06/16 01:18:41;;;;;;;;;;;;;;;16.50;74.52;101335.47;5010408;28;20323;-84
2022/06/16 01:21:17;;;;;;;;;;;;;;;16.46;75.05;101331.44;5009803;28;19913;-85
2022/06/16 01:24:08;;;;;;;;;;;;;;;16.49;74.69;101339.22;5012311;28;20452;-84
2022/06/16 01:27:24;;;;;;;;;;;;;;;16.49;74.79;101332.94;5006859;28;19963;-85
2022/06/16 01:29:57;;;;;;;;;;;;;;;16.44;74.86;101330.78;5006377;28;19925;-84
2022/06/16 01:32:31;;;;;;;;;;;;;;;16.39;75.36;101335.94;5008469;28;19921;-85
2022/06/16 01:35:15;;;;;;;;;;;;;;;16.36;75.66;101333.56;5014069;28;19947;-84
2022/06/16 01:37:59;;;;;;;;;;;;;;;16.31;75.81;101327.84;5014690;28;19932;-83
2022/06/16 01:40:27;;;;;;;;;;;;;;;16.34;75.80;101332.88;5010685;28;19921;-84
2022/06/16 01:43:01;;;;;;;;;;;;;;;16.13;76.17;101334.44;5010273;28;20020;-85
2022/06/16 01:45:45;;;;;;;;;;;;;;;16.13;76.82;101322.72;5017253;28;19996;-85
2022/06/16 01:48:12;;;;;;;;;;;;;;;16.11;76.67;101341.03;5007145;28;19925;-84
2022/06/16 01:51:03;;;;;;;;;;;;;;;16.18;76.63;101337.44;4994930;28;20301;-84
2022/06/16 01:53:39;;;;;;;;;;;;;;;16.18;76.37;101337.44;5012095;28;19913;-84
2022/06/16 01:56:31;;;;;;;;;;;;;;;16.18;76.18;101339.31;5004039;28;19917;-83
2022/06/16 01:58:59;;;;;;;;;;;;;;;16.18;76.11;101342.03;4990474;28;19964;-83
2022/06/16 02:01:25;;;;;;;;;;;;;;;16.17;76.58;101341.16;4996661;28;19975;-82
2022/06/16 02:03:54;;;;;;;;;;;;;;;16.03;76.99;101333.81;5016651;28;19932;-83
2022/06/16 02:06:21;;;;;;;;;;;;;;;16.13;77.06;101341.72;5010972;28;20369;-84
2022/06/16 02:08:48;;;;;;;;;;;;;;;16.05;77.69;101348.03;5011460;28;20079;-85
2022/06/16 02:11:16;;;;;;;;;;;;;;;16.07;77.37;101348.72;5009966;28;20412;-86
2022/06/16 02:13:57;;;;;;;;;;;;;;;16.05;77.70;101342.63;4999070;28;19921;-85
2022/06/16 02:16:27;;;;;;;;;;;;;;;15.98;78.15;101342.50;5009929;28;19925;-84
2022/06/16 02:18:56;;;;;;;;;;;;;;;15.91;77.84;101340.69;4994330;28;20366;-83
2022/06/16 02:21:37;;;;;;;;;;;;;;;16.01;77.51;101346.69;5010179;28;20278;-84
2022/06/16 02:24:06;;;;;;;;;;;;;;;15.89;78.11;101350.84;4998651;28;19969;-85
2022/06/16 02:26:32;;;;;;;;;;;;;;;15.88;78.14;101351.91;5008143;28;19917;-85
2022/06/16 02:28:59;;;;;;;;;;;;;;;15.90;78.07;101350.69;5013059;28;19924;-85
2022/06/16 02:31:25;;;;;;;;;;;;;;;15.91;78.11;101352.38;4997296;28;19913;-85
2022/06/16 02:33:57;;;;;;;;;;;;;;;15.88;78.45;101357.31;5025602;28;19909;-84
2022/06/16 02:36:41;;;;;;;;;;;;;;;15.93;77.92;101357.63;5032376;28;19914;-83
2022/06/16 02:39:18;;;;;;;;;;;;;;;15.94;77.74;101353.88;5030526;28;19918;-83
2022/06/16 02:41:43;;;;;;;;;;;;;;;15.74;78.22;101361.63;5023705;28;20338;-84
2022/06/16 02:44:31;;;;;;;;;;;;;;;15.77;78.68;101351.25;5002976;28;19945;-84
2022/06/16 02:47:07;;;;;;;;;;;;;;;15.75;78.78;101347.88;5023503;28;19905;-83
2022/06/16 02:50:11;;;;;;;;;;;;;;;15.85;78.09;101352.22;5025237;28;19925;-84
2022/06/16 02:52:48;;;;;;;;;;;;;;;15.81;78.05;101358.03;4969372;28;19918;-84
2022/06/16 02:55:17;;;;;;;;;;;;;;;15.69;78.48;101359.41;4961226;28;20031;-84
2022/06/16 02:57:49;;;;;;;;;;;;;;;15.79;78.40;101357.34;4985775;28;22048;-85
2022/06/16 03:00:41;;;;;;;;;;;;;;;15.78;78.54;101349.38;5009535;28;19917;-85
2022/06/16 03:03:16;;;;;;;;;;;;;;;15.86;77.86;101359.38;5011717;28;20301;-85
2022/06/16 03:05:44;;;;;;;;;;;;;;;15.83;77.94;101355.13;5010156;28;19928;-86
2022/06/16 03:08:14;;;;;;;;;;;;;;;15.89;77.66;101359.00;5008420;28;19921;-84
2022/06/16 03:10:51;;;;;;;;;;;;;;;15.99;77.74;101355.03;5004545;28;20258;-83
2022/06/16 03:13:17;;;;;;;;;;;;;;;15.98;77.79;101352.50;4994320;28;19929;-84
2022/06/16 03:15:45;;;;;;;;;;;;;;;15.93;77.86;101349.47;5009162;28;19921;-84
2022/06/16 03:18:14;;;;;;;;;;;;;;;15.96;78.03;101354.53;4991804;28;19925;-83
2022/06/16 03:20:39;;;;;;;;;;;;;;;15.91;78.70;101352.38;4984829;28;19917;-84
2022/06/16 03:23:08;;;;;;;;;;;;;;;16.11;77.86;101349.19;5009537;28;19921;-84
2022/06/16 03:25:33;;;;;;;;;;;;;;;16.09;77.97;101349.38;5008261;28;19949;-84
2022/06/16 03:27:59;;;;;;;;;;;;;;;16.14;77.43;101341.53;5009158;28;20231;-84
2022/06/16 03:30:30;;;;;;;;;;;;;;;16.19;77.28;101349.97;5008634;28;19917;-84
2022/06/16 03:32:56;;;;;;;;;;;;;;;16.26;76.96;101355.50;5007197;28;19924;-85
2022/06/16 03:35:21;;;;;;;;;;;;;;;16.15;77.11;101355.94;5010346;28;19921;-83
2022/06/16 03:37:47;;;;;;;;;;;;;;;16.27;76.76;101345.50;5015568;28;19925;-85
2022/06/16 03:40:18;;;;;;;;;;;;;;;16.14;76.74;101349.66;5011174;28;19921;-85
2022/06/16 03:42:47;;;;;;;;;;;;;;;16.21;76.36;101350.63;5009153;28;20015;-84
2022/06/16 03:45:19;;;;;;;;;;;;;;;16.33;76.05;101350.22;5007589;28;19928;-84
2022/06/16 03:47:52;;;;;;;;;;;;;;;16.44;75.69;101352.50;5021007;28;19913;-87
2022/06/16 03:50:35;;;;;;;;;;;;;;;16.35;75.67;101353.59;5010950;28;19921;-83
2022/06/16 03:53:01;;;;;;;;;;;;;;;16.45;75.10;101349.59;5011338;28;19913;-85
2022/06/16 03:55:27;;;;;;;;;;;;;;;16.55;74.77;101349.34;5007277;28;20304;-85
2022/06/16 03:57:54;;;;;;;;;;;;;;;16.76;74.51;101350.50;5008164;28;19979;-86
2022/06/16 04:00:26;;;;;;;;;;;;;;;17.10;72.91;101352.72;5009867;28;19917;-84
2022/06/16 04:05:41;;;;;;;;;;;;;;;20.90;60.57;101356.13;4949460;29;19929;-83
2022/06/16 04:08:09;;;;;;;;;;;;;;;22.41;55.81;101354.88;4946377;29;19919;-83
2022/06/16 04:10:38;;;;;;;;;;;;;;;23.29;51.31;101353.00;4943531;28;20062;-84
2022/06/16 04:13:03;;;;;;;;;;;;;;;24.40;49.00;101348.97;4931789;28;19989;-84
2022/06/16 04:15:35;;;;;;;;;;;;;;;25.40;45.32;101352.72;4948676;28;19954;-85
2022/06/16 04:18:02;;;;;;;;;;;;;;;26.35;43.25;101346.81;5000883;28;19927;-86
2022/06/16 04:20:29;;;;;;;;;;;;;;;27.05;41.92;101346.28;5010462;28;19918;-85
2022/06/16 04:22:55;;;;;;;;;;;;;;;27.82;40.26;101350.03;5008822;28;19920;-89
2022/06/16 04:25:30;;;;;;;;;;;;;;;28.56;38.21;101356.84;5010982;28;19917;-86
2022/06/16 04:27:58;;;;;;;;;;;;;;;29.20;36.86;101348.44;5013742;28;19933;-87
2022/06/16 04:30:23;;;;;;;;;;;;;;;29.29;35.96;101350.69;5013022;28;19928;-84
2022/06/16 04:32:49;;;;;;;;;;;;;;;29.62;35.71;101347.50;5013169;28;19925;-84
2022/06/16 04:35:14;;;;;;;;;;;;;;;29.83;34.80;101353.97;5029529;28;19949;-84
2022/06/16 04:37:41;;;;;;;;;;;;;;;30.24;34.27;101350.44;5010789;28;20386;-83
2022/06/16 04:40:09;;;;;;;;;;;;;;;30.69;33.57;101340.44;5023328;28;19917;-84
2022/06/16 04:42:36;;;;;;;;;;;;;;;31.26;32.75;101344.78;5029942;28;20305;-84
2022/06/16 04:45:01;;;;;;;;;;;;;;;32.07;31.74;101345.50;5010061;28;19929;-83
2022/06/16 04:47:27;;;;;;;;;;;;;;;32.63;30.25;101346.19;5015546;28;19913;-84
2022/06/16 04:49:52;;;;;;;;;;;;;;;33.12;29.10;101339.56;5006759;28;20001;-84
2022/06/16 04:52:20;;;;;;;;;;;;;;;33.25;29.08;101330.50;5012360;28;20357;-85
2022/06/16 04:54:46;;;;;;;;;;;;;;;33.56;27.97;101328.13;5010253;28;19925;-84
2022/06/16 04:57:15;;;;;;;;;;;;;;;33.56;28.37;101335.66;4991536;28;19928;-85
2022/06/16 04:59:46;;;;;;;;;;;;;;;33.87;28.00;101327.72;5011953;28;19948;-83
2022/06/16 05:02:11;;;;;;;;;;;;;;;33.95;27.48;101328.97;5008514;28;19914;-86
2022/06/16 05:04:44;;;;;;;;;;;;;;;34.12;27.23;101323.72;5014658;28;20397;-87
2022/06/16 05:07:16;;;;;;;;;;;;;;;34.25;26.90;101327.69;4995536;28;19925;-85
2022/06/16 05:09:44;;;;;;;;;;;;;;;33.91;26.77;101316.78;5018754;28;19933;-84
2022/06/16 05:12:10;;;;;;;;;;;;;;;33.90;27.12;101320.69;5016070;28;19952;-82
2022/06/16 05:14:35;;;;;;;;;;;;;;;33.85;26.82;101319.63;5007237;28;19943;-83
2022/06/16 05:17:00;;;;;;;;;;;;;;;33.63;27.36;101319.44;5012930;28;20367;-83
2022/06/16 05:19:30;;;;;;;;;;;;;;;33.55;26.91;101318.13;5005818;28;19967;-81
2022/06/16 05:22:05;;;;;;;;;;;;;;;33.28;27.59;101315.97;5011297;28;20000;-84
2022/06/16 05:24:30;;;;;;;;;;;;;;;33.14;28.03;101310.28;5004858;28;19929;-82
2022/06/16 05:26:57;;;;;;;;;;;;;;;32.91;28.91;101314.69;4989811;28;20427;-81
2022/06/16 05:29:22;;;;;;;;;;;;;;;32.84;29.07;101318.97;5009858;28;19910;-81
2022/06/16 05:31:52;;;;;;;;;;;;;;;32.79;29.13;101317.06;5012105;28;20384;-82
2022/06/16 05:34:20;;;;;;;;;;;;;;;32.59;30.13;101321.75;5004507;28;19950;-83
2022/06/16 05:36:51;;;;;;;;;;;;;;;32.28;30.62;101323.09;5025834;28;19921;-82
2022/06/16 05:39:24;;;;;;;;;;;;;;;32.22;30.59;101327.03;5006508;28;20011;-83
2022/06/16 05:42:02;;;;;;;;;;;;;;;31.94;31.29;101326.66;5027953;28;19971;-84
2022/06/16 05:44:32;;;;;;;;;;;;;;;31.68;31.63;101321.28;5021211;28;19937;-84
2022/06/16 05:47:00;;;;;;;;;;;;;;;31.59;32.46;101328.56;5026505;28;19944;-84
2022/06/16 05:49:42;;;;;;;;;;;;;;;31.40;33.01;101319.16;5005672;28;20381;-84
2022/06/16 05:52:14;;;;;;;;;;;;;;;31.35;33.33;101320.00;5016342;28;19917;-84
2022/06/16 05:54:41;;;;;;;;;;;;;;;31.30;33.61;101320.88;5007159;28;19918;-85
2022/06/16 05:57:10;;;;;;;;;;;;;;;30.98;33.87;101326.84;4990950;28;19925;-83
2022/06/16 05:59:38;;;;;;;;;;;;;;;30.84;33.82;101326.59;5010064;28;19925;-85
2022/06/16 06:02:06;;;;;;;;;;;;;;;30.21;35.54;101331.56;5012529;28;20415;-86
2022/06/16 06:04:32;;;;;;;;;;;;;;;29.96;35.94;101338.75;4997231;28;19917;-86
2022/06/16 06:07:00;;;;;;;;;;;;;;;29.72;36.17;101332.06;5003457;28;19917;-88
2022/06/16 06:17:43;;;;;;;;;;;;;;;29.34;36.53;101332.19;5005396;28;19924;-89
2022/06/16 06:20:09;;;;;;;;;;;;;;;29.29;37.20;101339.63;5015495;28;19913;-88
2022/06/16 06:22:34;;;;;;;;;;;;;;;29.20;35.11;101334.59;4996531;28;20378;-87
2022/06/16 06:25:08;;;;;;;;;;;;;;;29.27;35.24;101339.91;5010800;28;19929;-88
2022/06/16 06:27:34;;;;;;;;;;;;;;;29.28;35.58;101337.97;5027129;28;19914;-88
2022/06/16 06:30:01;;;;;;;;;;;;;;;29.35;34.92;101335.78;5010782;28;19917;-88
2022/06/16 06:32:27;;;;;;;;;;;;;;;29.33;33.21;101329.66;5016346;28;19924;-88
2022/06/16 06:34:56;;;;;;;;;;;;;;;29.50;32.39;101329.44;4996274;28;19921;-86
2022/06/16 06:37:22;;;;;;;;;;;;;;;29.66;29.57;101329.25;5009618;28;20286;-87
2022/06/16 06:39:49;;;;;;;;;;;;;;;29.74;26.75;101329.84;5001543;28;19917;-88
2022/06/16 06:42:15;;;;;;;;;;;;;;;29.69;26.81;101327.03;5004280;28;19910;-88
2022/06/16 06:44:41;;;;;;;;;;;;;;;29.31;25.50;101326.34;5013933;28;19940;-87
2022/06/16 06:47:09;;;;;;;;;;;;;;;28.99;26.13;101324.50;5014695;28;20016;-91
2022/06/16 06:49:34;;;;;;;;;;;;;;;29.00;23.88;101317.84;5012061;28;19936;-91
2022/06/16 06:52:06;;;;;;;;;;;;;;;29.16;25.65;101324.34;5025129;28;19973;-89
2022/06/16 06:54:31;;;;;;;;;;;;;;;28.94;26.64;101317.00;5016461;28;19921;-90
2022/06/16 06:56:57;;;;;;;;;;;;;;;29.17;27.88;101326.84;5012027;28;19921;-91
2022/06/16 06:59:25;;;;;;;;;;;;;;;29.40;26.32;101325.53;4986327;28;19921;-90
2022/06/16 07:01:52;;;;;;;;;;;;;;;29.58;25.50;101332.53;5014044;28;19924;-90
2022/06/16 07:04:22;;;;;;;;;;;;;;;29.85;25.87;101329.59;5004382;28;19917;-85
2022/06/16 07:06:48;;;;;;;;;;;;;;;29.88;22.39;101325.44;5008895;28;19910;-85
2022/06/16 07:09:13;;;;;;;;;;;;;;;30.15;23.63;101325.19;5005502;28;19932;-85
2022/06/16 07:11:41;;;;;;;;;;;;;;;30.45;23.01;101327.16;5007009;28;19983;-86
2022/06/16 07:14:07;;;;;;;;;;;;;;;30.59;22.59;101323.81;5012217;28;19920;-86
2022/06/16 07:16:33;;;;;;;;;;;;;;;30.73;21.43;101330.47;4990757;28;19925;-85
2022/06/16 07:18:58;;;;;;;;;;;;;;;30.65;23.39;101326.31;5008142;28;20317;-90
2022/06/16 07:21:27;;;;;;;;;;;;;;;30.98;22.30;101326.00;5007364;28;20049;-88
2022/06/16 07:23:53;;;;;;;;;;;;;;;31.24;20.79;101330.34;5003880;28;19928;-88
2022/06/16 07:26:19;;;;;;;;;;;;;;;31.47;20.47;101328.06;4997441;28;19914;-86
2022/06/16 07:28:45;;;;;;;;;;;;;;;31.73;19.05;101326.78;5006507;28;19917;-87
2022/06/16 07:31:10;;;;;;;;;;;;;;;31.81;19.30;101330.09;5013447;28;19976;-87
2022/06/16 07:33:37;;;;;;;;;;;;;;;31.80;19.15;101334.81;5013376;28;20404;-85
2022/06/16 07:36:07;;;;;;;;;;;;;;;31.54;18.97;101339.69;5003051;28;20009;-85
2022/06/16 07:38:33;;;;;;;;;;;;;;;31.90;18.72;101336.69;4998976;28;20390;-86
2022/06/16 07:43:49;;;;;;;;;;;;;;;31.83;18.77;101350.09;5023747;28;19912;-86
2022/06/16 07:46:14;;;;;;;;;;;;;;;32.11;21.56;101346.59;5008842;28;20008;-87
2022/06/16 07:48:40;;;;;;;;;;;;;;;32.28;19.09;101346.16;5013893;28;20015;-85
2022/06/16 07:51:08;;;;;;;;;;;;;;;32.45;18.88;101348.56;5014238;28;19976;-85
2022/06/16 07:53:35;;;;;;;;;;;;;;;32.43;18.16;101347.16;5027545;28;19920;-85
2022/06/16 07:56:01;;;;;;;;;;;;;;;31.98;18.61;101351.97;4997322;28;19924;-83
2022/06/16 07:58:31;;;;;;;;;;;;;;;31.54;19.08;101356.38;5013697;28;19917;-84
2022/06/16 08:00:59;;;;;;;;;;;;;;;31.25;19.10;101348.66;5015499;28;19921;-84
2022/06/16 08:03:29;;;;;;;;;;;;;;;31.58;18.98;101356.63;5012550;28;19924;-85
2022/06/16 08:05:57;;;;;;;;;;;;;;;31.26;19.23;101364.22;5007835;28;19914;-84
2022/06/16 08:08:26;;;;;;;;;;;;;;;31.32;19.08;101359.47;5015700;28;19949;-87
2022/06/16 08:10:52;;;;;;;;;;;;;;;31.12;19.47;101357.63;5020794;28;19913;-86
2022/06/16 08:13:21;;;;;;;;;;;;;;;30.79;19.58;101362.66;5035977;28;19908;-85
2022/06/16 08:15:46;;;;;;;;;;;;;;;31.06;19.87;101367.06;5035157;28;19917;-85
2022/06/16 08:18:17;;;;;;;;;;;;;;;30.71;19.63;101366.81;5031519;28;19921;-84
2022/06/16 08:20:44;;;;;;;;;;;;;;;30.92;19.90;101362.09;5020920;28;19924;-84
2022/06/16 08:23:10;;;;;;;;;;;;;;;30.69;19.86;101362.66;5016264;28;19948;-84
2022/06/16 08:25:36;;;;;;;;;;;;;;;30.77;20.39;101358.50;5016376;28;19918;-84
2022/06/16 08:28:05;;;;;;;;;;;;;;;30.49;21.86;101364.34;5011089;28;20376;-85
2022/06/16 08:30:32;;;;;;;;;;;;;;;30.38;21.53;101376.53;5013584;28;19925;-84
2022/06/16 08:32:58;;;;;;;;;;;;;;;30.37;20.98;101372.09;4997066;28;19917;-83
2022/06/16 08:35:23;;;;;;;;;;;;;;;30.61;21.07;101374.31;5011061;28;19925;-85
2022/06/16 08:37:49;;;;;;;;;;;;;;;31.20;20.32;101368.13;5013092;28;20011;-84
2022/06/16 08:40:15;;;;;;;;;;;;;;;31.42;20.89;101366.97;5010646;28;20317;-84
2022/06/16 08:42:50;;;;;;;;;;;;;;;31.07;22.82;101358.47;4999923;28;19933;-83
2022/06/16 08:45:16;;;;;;;;;;;;;;;31.33;23.09;101364.75;5030165;28;19980;-83
2022/06/16 08:47:41;;;;;;;;;;;;;;;31.54;23.85;101368.31;5022446;28;19910;-85
2022/06/16 08:50:25;;;;;;;;;;;;;;;32.23;23.12;101367.66;5026302;28;19917;-83
2022/06/16 08:52:56;;;;;;;;;;;;;;;32.01;23.58;101371.69;5028488;28;19917;-84
2022/06/16 08:55:27;;;;;;;;;;;;;;;32.50;23.25;101372.69;5029906;28;19925;-81
2022/06/16 08:57:59;;;;;;;;;;;;;;;32.74;23.18;101379.19;5000343;28;20358;-84
2022/06/16 09:00:31;;;;;;;;;;;;;;;32.62;22.16;101372.38;5012498;28;19933;-83
2022/06/16 09:03:04;;;;;;;;;;;;;;;32.35;22.43;101382.00;5008579;28;19920;-84
2022/06/16 09:05:37;;;;;;;;;;;;;;;32.62;21.88;101380.72;5007505;28;19917;-85
2022/06/16 09:08:26;;;;;;;;;;;;;;;32.26;20.49;101372.63;4991867;28;19952;-84
2022/06/16 09:11:11;;;;;;;;;;;;;;;32.29;21.54;101380.41;4985585;28;20442;-84
2022/06/16 09:13:37;;;;;;;;;;;;;;;33.19;19.16;101370.69;5006042;28;19918;-84
2022/06/16 09:16:07;;;;;;;;;;;;;;;33.30;19.66;101369.44;5013388;28;20254;-84
2022/06/16 09:18:48;;;;;;;;;;;;;;;33.94;18.58;101366.38;5012267;28;20012;-85
2022/06/16 09:21:17;;;;;;;;;;;;;;;34.17;19.31;101373.88;5013060;28;20051;-85
2022/06/16 09:23:59;;;;;;;;;;;;;;;34.17;20.84;101371.06;5012961;28;19935;-82
2022/06/16 09:26:25;;;;;;;;;;;;;;;34.00;20.68;101365.19;5028447;28;19909;-85
2022/06/16 09:28:59;;;;;;;;;;;;;;;34.15;20.43;101373.34;5013234;28;19920;-83
2022/06/16 09:31:29;;;;;;;;;;;;;;;34.79;20.24;101373.66;5012089;28;19921;-83
2022/06/16 09:33:57;;;;;;;;;;;;;;;34.71;19.26;101367.97;5013635;28;19924;-83
2022/06/16 09:36:26;;;;;;;;;;;;;;;35.10;18.84;101370.31;4990017;28;19960;-85
2022/06/16 09:38:57;;;;;;;;;;;;;;;35.37;18.39;101374.25;4990284;28;19932;-83
2022/06/16 09:44:23;;;;;;;;;;;;;;;36.49;17.80;101370.88;5008711;28;19921;-83
2022/06/16 09:46:51;;;;;;;;;;;;;;;36.14;18.14;101370.63;5009598;28;20317;-84
2022/06/16 09:49:18;;;;;;;;;;;;;;;37.52;17.55;101363.28;5012252;28;19917;-85
2022/06/16 09:51:46;;;;;;;;;;;;;;;37.63;16.65;101363.81;5011749;28;19913;-85
2022/06/16 09:54:11;;;;;;;;;;;;;;;37.24;18.91;101368.31;5014000;28;19917;-86
2022/06/16 09:56:38;;;;;;;;;;;;;;;36.64;17.60;101361.25;5017634;28;19944;-85
2022/06/16 09:59:11;;;;;;;;;;;;;;;37.12;17.84;101361.34;5017228;28;19913;-85
2022/06/16 10:01:41;;;;;;;;;;;;;;;37.45;17.52;101362.94;5012674;28;19917;-85
2022/06/16 10:04:06;;;;;;;;;;;;;;;37.43;16.73;101354.84;5004766;28;19920;-86
2022/06/16 10:06:35;;;;;;;;;;;;;;;37.91;14.92;101351.16;5011249;28;19913;-85
2022/06/16 10:09:38;;;;;;;;;;;;;;;38.76;14.39;101350.56;5012916;28;19928;-85
2022/06/16 10:12:21;;;;;;;;;;;;;;;38.68;14.63;101359.00;4971372;28;19922;-86
2022/06/16 10:14:54;;;;;;;;;;;;;;;39.29;14.65;101355.94;4969973;28;20012;-86
2022/06/16 10:17:21;;;;;;;;;;;;;;;38.60;14.79;101355.88;5005085;28;19917;-86
2022/06/16 10:19:46;;;;;;;;;;;;;;;39.04;15.25;101362.22;5011295;28;19913;-87
2022/06/16 10:22:15;;;;;;;;;;;;;;;38.76;15.07;101361.78;5011418;28;20019;-85
2022/06/16 10:24:45;;;;;;;;;;;;;;;39.54;15.63;101357.81;5013203;28;19914;-85
2022/06/16 10:27:11;;;;;;;;;;;;;;;37.97;17.60;101363.84;5010659;28;20053;-84
2022/06/16 10:29:37;;;;;;;;;;;;;;;37.49;17.85;101356.34;5009398;28;20380;-84
2022/06/16 10:32:03;;;;;;;;;;;;;;;37.07;17.75;101355.09;5026679;28;19937;-84
2022/06/16 10:34:29;;;;;;;;;;;;;;;36.20;17.63;101363.75;5011206;28;19909;-83
2022/06/16 10:36:59;;;;;;;;;;;;;;;35.96;17.13;101360.38;5010078;28;19920;-84
2022/06/16 10:39:26;;;;;;;;;;;;;;;34.93;17.12;101356.09;5008024;28;19949;-84
2022/06/16 10:41:53;;;;;;;;;;;;;;;33.84;18.76;101345.88;4986668;28;19978;-83
2022/06/16 10:44:18;;;;;;;;;;;;;;;32.73;21.18;101354.44;5010467;28;20381;-84
2022/06/16 10:46:45;;;;;;;;;;;;;;;32.65;22.74;101350.34;5012058;28;19943;-84
2022/06/16 10:49:17;;;;;;;;;;;;;;;32.30;23.47;101365.38;5019425;28;19945;-84
2022/06/16 10:51:48;;;;;;;;;;;;;;;32.73;21.88;101351.66;5011821;28;19927;-84
2022/06/16 10:54:14;;;;;;;;;;;;;;;31.64;22.65;101339.63;4991245;28;20321;-85
2022/06/16 10:56:40;;;;;;;;;;;;;;;31.58;24.87;101346.31;5001953;28;19917;-84
2022/06/16 10:59:14;;;;;;;;;;;;;;;30.96;23.38;101348.50;5020197;28;19920;-84
2022/06/16 11:01:46;;;;;;;;;;;;;;;30.57;23.58;101353.78;5011629;28;19917;-85
2022/06/16 11:04:13;;;;;;;;;;;;;;;30.65;25.37;101344.91;4986814;28;19924;-83
2022/06/16 11:06:39;;;;;;;;;;;;;;;30.35;24.84;101352.13;4993320;28;20350;-85
2022/06/16 11:09:04;;;;;;;;;;;;;;;29.66;24.15;101350.56;5010793;28;19921;-85
2022/06/16 11:11:40;;;;;;;;;;;;;;;29.65;21.99;101348.91;5010547;28;20391;-83
2022/06/16 11:14:07;;;;;;;;;;;;;;;29.39;22.83;101348.81;4993677;28;19913;-84
2022/06/16 11:16:32;;;;;;;;;;;;;;;29.04;23.58;101346.66;5009813;28;20335;-83
2022/06/16 11:19:01;;;;;;;;;;;;;;;28.93;24.41;101342.16;5011212;28;19917;-83
2022/06/16 11:21:29;;;;;;;;;;;;;;;29.35;24.69;101335.78;5009957;28;19960;-85
2022/06/16 11:23:55;;;;;;;;;;;;;;;29.39;24.14;101350.75;5008947;28;20306;-85
2022/06/16 11:26:20;;;;;;;;;;;;;;;29.16;25.25;101341.78;5002698;28;19928;-84
2022/06/16 11:28:46;;;;;;;;;;;;;;;29.31;23.66;101331.88;5010968;28;19913;-83
2022/06/16 11:31:17;;;;;;;;;;;;;;;29.69;25.49;101338.97;5026204;28;20017;-85
2022/06/16 11:36:30;;;;;;;;;;;;;;;29.56;25.46;101339.47;5010907;28;19924;-84
2022/06/16 11:38:57;;;;;;;;;;;;;;;29.15;24.90;101340.13;5011259;28;19943;-84
2022/06/16 11:41:22;;;;;;;;;;;;;;;29.01;23.87;101336.97;4998778;28;20452;-84
2022/06/16 11:43:53;;;;;;;;;;;;;;;28.55;25.82;101338.59;4988732;28;19925;-83
2022/06/16 11:46:26;;;;;;;;;;;;;;;28.30;24.96;101339.19;5014311;28;19968;-88
2022/06/16 11:49:03;;;;;;;;;;;;;;;28.34;26.84;101340.34;5016000;28;19944;-87
2022/06/16 11:51:33;;;;;;;;;;;;;;;28.34;26.39;101335.63;5005005;28;19933;-87
2022/06/16 11:54:10;;;;;;;;;;;;;;;28.31;26.29;101324.28;5012266;28;19944;-84
2022/06/16 11:56:39;;;;;;;;;;;;;;;28.60;27.49;101322.88;5020511;28;19953;-86
2022/06/16 11:59:23;;;;;;;;;;;;;;;28.71;26.43;101321.00;5024336;28;19953;-84
2022/06/16 12:01:51;;;;;;;;;;;;;;;28.53;25.92;101329.72;5019245;28;19939;-82
2022/06/16 12:04:37;;;;;;;;;;;;;;;28.12;26.60;101327.44;5023018;28;19921;-89
2022/06/16 12:07:21;;;;;;;;;;;;;;;28.01;26.29;101324.84;5042877;28;19920;-85
2022/06/16 12:10:02;;;;;;;;;;;;;;;28.13;26.39;101314.44;5015192;28;19924;-83
2022/06/16 12:12:27;;;;;;;;;;;;;;;27.88;27.36;101320.53;4991686;28;19944;-89
2022/06/16 12:15:13;;;;;;;;;;;;;;;27.74;26.94;101320.09;5011383;28;19917;-87
2022/06/16 12:17:56;;;;;;;;;;;;;;;27.91;27.53;101320.88;4991211;28;19924;-88
2022/06/16 12:20:21;;;;;;;;;;;;;;;27.44;27.23;101321.44;5011302;28;19980;-86
2022/06/16 12:22:52;;;;;;;;;;;;;;;27.33;27.41;101314.13;5011945;28;20421;-85
2022/06/16 12:25:22;;;;;;;;;;;;;;;27.47;26.21;101314.56;5010872;28;19967;-84
2022/06/16 12:27:51;;;;;;;;;;;;;;;27.16;27.10;101308.63;5010826;28;21424;-88
2022/06/16 12:30:24;;;;;;;;;;;;;;;27.06;28.63;101309.31;5008467;28;19957;-89
2022/06/16 12:32:57;;;;;;;;;;;;;;;27.21;27.36;101311.47;5011697;28;20357;-86
2022/06/16 12:35:24;;;;;;;;;;;;;;;27.00;27.30;101304.81;5008495;28;19921;-83
2022/06/16 12:37:50;;;;;;;;;;;;;;;27.01;28.09;101306.47;5009525;28;20328;-85
2022/06/16 12:40:18;;;;;;;;;;;;;;;26.84;28.45;101302.94;5012633;28;19917;-84
2022/06/16 12:42:49;;;;;;;;;;;;;;;26.94;29.02;101300.31;5012665;28;20312;-85
2022/06/16 12:45:16;;;;;;;;;;;;;;;26.63;29.27;101302.63;4993459;28;19916;-88
2022/06/16 12:48:02;;;;;;;;;;;;;;;26.40;30.81;101289.84;5009394;28;19991;-89
2022/06/16 12:50:31;;;;;;;;;;;;;;;26.30;30.66;101296.03;5012501;28;19964;-87
2022/06/16 12:53:01;;;;;;;;;;;;;;;26.16;30.74;101297.44;5025610;28;19933;-88
2022/06/16 12:55:35;;;;;;;;;;;;;;;26.30;30.90;101287.75;5003849;28;19945;-89
2022/06/16 12:58:08;;;;;;;;;;;;;;;26.29;29.90;101296.25;5027020;28;19921;-85
2022/06/16 13:00:40;;;;;;;;;;;;;;;26.17;30.97;101290.00;5014763;28;19996;-85
2022/06/16 13:03:12;;;;;;;;;;;;;;;25.93;31.45;101289.31;5020453;28;19921;-85
2022/06/16 13:05:38;;;;;;;;;;;;;;;26.16;30.36;101285.59;5011966;28;20008;-86
2022/06/16 13:08:04;;;;;;;;;;;;;;;26.06;29.90;101291.78;5011758;28;19956;-84
2022/06/16 13:10:35;;;;;;;;;;;;;;;25.96;30.67;101289.66;4996539;28;20012;-84
2022/06/16 13:13:05;;;;;;;;;;;;;;;25.87;29.73;101294.75;5008641;28;20029;-89